sensor_id;sensor_type;location;lat;lon;timestamp;temperature;humidity
64501;DHT22;50874;24.150;-110.320;2023-05-07T00:01:11;29.90;95.50
64501;DHT22;50874;24.150;-110.320;2023-05-07T00:03:38;29.70;95.70
64501;DHT22;50874;24.150;-110.320;2023-05-07T00:06:05;29.60;96.30
64501;DHT22;50874;24.150;-110.320;2023-05-07T00:08:31;29.40;96.00
64501;DHT22;50874;24.150;-110.320;2023-05-07T00:10:58;29.30;96.00
64501;DHT22;50874;24.150;-110.320;2023-05-07T00:13:24;29.40;95.90
64501;DHT22;50874;24.150;-110.320;2023-05-07T00:15:50;29.40;96.00
64501;DHT22;50874;24.150;-110.320;2023-05-07T00:18:17;29.40;96.30
64501;DHT22;50874;24.150;-110.320;2023-05-07T00:20:46;29.20;96.90
64501;DHT22;50874;24.150;-110.320;2023-05-07T00:23:13;29.00;97.10
64501;DHT22;50874;24.150;-110.320;2023-05-07T00:25:39;29.00;97.10
64501;DHT22;50874;24.150;-110.320;2023-05-07T00:28:06;28.70;97.70
64501;DHT22;50874;24.150;-110.320;2023-05-07T00:30:32;28.70;98.00
64501;DHT22;50874;24.150;-110.320;2023-05-07T00:32:58;28.40;98.40
64501;DHT22;50874;24.150;-110.320;2023-05-07T00:35:25;28.30;98.70
64501;DHT22;50874;24.150;-110.320;2023-05-07T00:37:51;28.40;98.80
64501;DHT22;50874;24.150;-110.320;2023-05-07T00:40:18;28.50;98.60
64501;DHT22;50874;24.150;-110.320;2023-05-07T00:42:44;28.40;98.70
64501;DHT22;50874;24.150;-110.320;2023-05-07T00:45:16;28.40;98.60
64501;DHT22;50874;24.150;-110.320;2023-05-07T00:47:43;28.40;98.70
64501;DHT22;50874;24.150;-110.320;2023-05-07T00:50:10;28.50;98.50
64501;DHT22;50874;24.150;-110.320;2023-05-07T00:52:38;28.70;98.20
64501;DHT22;50874;24.150;-110.320;2023-05-07T00:55:06;28.80;97.60
64501;DHT22;50874;24.150;-110.320;2023-05-07T00:57:36;28.80;97.50
64501;DHT22;50874;24.150;-110.320;2023-05-07T01:00:04;28.80;97.10
64501;DHT22;50874;24.150;-110.320;2023-05-07T01:02:31;28.90;97.10
64501;DHT22;50874;24.150;-110.320;2023-05-07T01:04:57;28.90;96.70
64501;DHT22;50874;24.150;-110.320;2023-05-07T01:07:24;28.90;96.60
64501;DHT22;50874;24.150;-110.320;2023-05-07T01:09:50;28.70;96.10
64501;DHT22;50874;24.150;-110.320;2023-05-07T01:12:17;28.70;95.90
64501;DHT22;50874;24.150;-110.320;2023-05-07T01:14:44;28.30;95.60
64501;DHT22;50874;24.150;-110.320;2023-05-07T01:17:10;28.30;95.50
64501;DHT22;50874;24.150;-110.320;2023-05-07T01:19:37;28.30;94.70
64501;DHT22;50874;24.150;-110.320;2023-05-07T01:22:10;28.30;94.30
64501;DHT22;50874;24.150;-110.320;2023-05-07T01:24:38;28.20;93.40
64501;DHT22;50874;24.150;-110.320;2023-05-07T01:27:04;28.10;93.10
64501;DHT22;50874;24.150;-110.320;2023-05-07T01:29:31;28.00;91.80
64501;DHT22;50874;24.150;-110.320;2023-05-07T01:31:59;28.00;91.00
64501;DHT22;50874;24.150;-110.320;2023-05-07T01:34:30;27.90;90.40
64501;DHT22;50874;24.150;-110.320;2023-05-07T01:36:58;27.70;90.40
64501;DHT22;50874;24.150;-110.320;2023-05-07T01:39:26;27.70;92.60
64501;DHT22;50874;24.150;-110.320;2023-05-07T01:41:55;27.60;90.40
64501;DHT22;50874;24.150;-110.320;2023-05-07T01:44:22;27.50;93.20
64501;DHT22;50874;24.150;-110.320;2023-05-07T01:46:49;27.40;92.20
64501;DHT22;50874;24.150;-110.320;2023-05-07T01:49:17;27.30;89.30
64501;DHT22;50874;24.150;-110.320;2023-05-07T01:51:43;27.20;87.40
64501;DHT22;50874;24.150;-110.320;2023-05-07T01:54:10;27.20;87.30
64501;DHT22;50874;24.150;-110.320;2023-05-07T01:56:36;27.10;87.20
64501;DHT22;50874;24.150;-110.320;2023-05-07T01:59:03;27.10;87.70
64501;DHT22;50874;24.150;-110.320;2023-05-07T02:01:29;27.00;88.00
64501;DHT22;50874;24.150;-110.320;2023-05-07T02:03:56;26.80;88.20
64501;DHT22;50874;24.150;-110.320;2023-05-07T02:06:22;26.80;88.30
64501;DHT22;50874;24.150;-110.320;2023-05-07T02:08:52;26.60;88.40
64501;DHT22;50874;24.150;-110.320;2023-05-07T02:11:18;26.60;88.60
64501;DHT22;50874;24.150;-110.320;2023-05-07T02:13:45;26.50;88.30
64501;DHT22;50874;24.150;-110.320;2023-05-07T02:16:12;26.50;88.00
64501;DHT22;50874;24.150;-110.320;2023-05-07T02:18:40;26.30;87.70
64501;DHT22;50874;24.150;-110.320;2023-05-07T02:21:06;26.30;88.10
64501;DHT22;50874;24.150;-110.320;2023-05-07T02:23:33;26.10;88.10
64501;DHT22;50874;24.150;-110.320;2023-05-07T02:25:59;26.10;89.00
64501;DHT22;50874;24.150;-110.320;2023-05-07T02:28:26;26.00;89.70
64501;DHT22;50874;24.150;-110.320;2023-05-07T02:30:53;26.00;91.60
64501;DHT22;50874;24.150;-110.320;2023-05-07T02:33:19;25.90;91.50
64501;DHT22;50874;24.150;-110.320;2023-05-07T02:35:46;25.90;93.80
64501;DHT22;50874;24.150;-110.320;2023-05-07T02:38:12;25.90;95.30
64501;DHT22;50874;24.150;-110.320;2023-05-07T02:40:38;25.90;96.40
64501;DHT22;50874;24.150;-110.320;2023-05-07T02:43:06;25.70;98.10
64501;DHT22;50874;24.150;-110.320;2023-05-07T02:45:33;25.60;99.00
64501;DHT22;50874;24.150;-110.320;2023-05-07T02:47:59;25.50;99.90
64501;DHT22;50874;24.150;-110.320;2023-05-07T02:50:26;25.40;99.90
64501;DHT22;50874;24.150;-110.320;2023-05-07T02:52:53;25.40;99.90
64501;DHT22;50874;24.150;-110.320;2023-05-07T02:55:19;25.30;99.10
64501;DHT22;50874;24.150;-110.320;2023-05-07T02:57:46;25.20;99.40
64501;DHT22;50874;24.150;-110.320;2023-05-07T03:00:17;25.30;99.30
64501;DHT22;50874;24.150;-110.320;2023-05-07T03:02:44;25.20;98.80
64501;DHT22;50874;24.150;-110.320;2023-05-07T03:05:11;25.20;98.90
64501;DHT22;50874;24.150;-110.320;2023-05-07T03:07:38;25.10;98.90
64501;DHT22;50874;24.150;-110.320;2023-05-07T03:10:05;25.00;99.10
64501;DHT22;50874;24.150;-110.320;2023-05-07T03:12:32;24.90;99.30
64501;DHT22;50874;24.150;-110.320;2023-05-07T03:15:01;24.90;99.50
64501;DHT22;50874;24.150;-110.320;2023-05-07T03:17:30;24.80;99.70
64501;DHT22;50874;24.150;-110.320;2023-05-07T03:19:56;24.70;99.90
64501;DHT22;50874;24.150;-110.320;2023-05-07T03:22:23;24.70;99.90
64501;DHT22;50874;24.150;-110.320;2023-05-07T03:24:49;24.60;99.90
64501;DHT22;50874;24.150;-110.320;2023-05-07T03:27:16;24.60;99.90
64501;DHT22;50874;24.150;-110.320;2023-05-07T03:29:42;24.60;99.90
64501;DHT22;50874;24.150;-110.320;2023-05-07T03:32:09;24.50;99.90
64501;DHT22;50874;24.150;-110.320;2023-05-07T03:34:35;24.50;99.90
64501;DHT22;50874;24.150;-110.320;2023-05-07T03:37:02;24.50;99.90
64501;DHT22;50874;24.150;-110.320;2023-05-07T03:39:28;24.50;99.90
64501;DHT22;50874;24.150;-110.320;2023-05-07T03:41:55;24.50;99.90
64501;DHT22;50874;24.150;-110.320;2023-05-07T03:44:21;24.60;99.90
64501;DHT22;50874;24.150;-110.320;2023-05-07T03:46:48;24.50;99.90
64501;DHT22;50874;24.150;-110.320;2023-05-07T03:49:14;24.50;99.90
64501;DHT22;50874;24.150;-110.320;2023-05-07T03:51:41;24.50;99.90
64501;DHT22;50874;24.150;-110.320;2023-05-07T03:54:07;24.60;99.90
64501;DHT22;50874;24.150;-110.320;2023-05-07T03:56:34;24.60;99.90
64501;DHT22;50874;24.150;-110.320;2023-05-07T03:59:01;24.60;99.90
64501;DHT22;50874;24.150;-110.320;2023-05-07T04:01:27;24.60;99.90
64501;DHT22;50874;24.150;-110.320;2023-05-07T04:03:55;24.60;99.90
64501;DHT22;50874;24.150;-110.320;2023-05-07T04:06:23;24.50;99.90
64501;DHT22;50874;24.150;-110.320;2023-05-07T04:08:50;24.60;99.90
64501;DHT22;50874;24.150;-110.320;2023-05-07T04:11:17;24.60;99.90
64501;DHT22;50874;24.150;-110.320;2023-05-07T04:13:43;24.60;99.90
64501;DHT22;50874;24.150;-110.320;2023-05-07T04:16:10;24.50;99.90
64501;DHT22;50874;24.150;-110.320;2023-05-07T04:18:36;24.50;99.90
64501;DHT22;50874;24.150;-110.320;2023-05-07T04:21:03;24.50;99.90
64501;DHT22;50874;24.150;-110.320;2023-05-07T04:23:29;24.50;99.90
64501;DHT22;50874;24.150;-110.320;2023-05-07T04:25:56;24.50;99.90
64501;DHT22;50874;24.150;-110.320;2023-05-07T04:28:23;24.50;99.90
64501;DHT22;50874;24.150;-110.320;2023-05-07T04:30:50;24.50;99.90
64501;DHT22;50874;24.150;-110.320;2023-05-07T04:33:17;24.40;99.90
64501;DHT22;50874;24.150;-110.320;2023-05-07T04:35:44;24.40;99.90
64501;DHT22;50874;24.150;-110.320;2023-05-07T04:38:10;24.30;99.90
64501;DHT22;50874;24.150;-110.320;2023-05-07T04:40:36;24.30;99.90
64501;DHT22;50874;24.150;-110.320;2023-05-07T04:43:03;24.30;99.90
64501;DHT22;50874;24.150;-110.320;2023-05-07T04:45:30;24.30;99.90
64501;DHT22;50874;24.150;-110.320;2023-05-07T04:47:57;24.30;99.90
64501;DHT22;50874;24.150;-110.320;2023-05-07T04:50:23;24.30;99.90
64501;DHT22;50874;24.150;-110.320;2023-05-07T04:52:50;24.30;99.90
64501;DHT22;50874;24.150;-110.320;2023-05-07T04:55:17;24.30;99.90
64501;DHT22;50874;24.150;-110.320;2023-05-07T04:57:43;24.20;99.90
64501;DHT22;50874;24.150;-110.320;2023-05-07T05:00:10;24.20;99.90
64501;DHT22;50874;24.150;-110.320;2023-05-07T05:02:36;24.20;99.90
64501;DHT22;50874;24.150;-110.320;2023-05-07T05:05:03;24.10;99.90
64501;DHT22;50874;24.150;-110.320;2023-05-07T05:07:30;24.10;99.90
64501;DHT22;50874;24.150;-110.320;2023-05-07T05:09:56;24.00;99.90
64501;DHT22;50874;24.150;-110.320;2023-05-07T05:12:23;23.90;99.90
64501;DHT22;50874;24.150;-110.320;2023-05-07T05:14:50;23.90;99.90
64501;DHT22;50874;24.150;-110.320;2023-05-07T05:17:16;23.80;99.90
64501;DHT22;50874;24.150;-110.320;2023-05-07T05:19:42;23.80;99.90
64501;DHT22;50874;24.150;-110.320;2023-05-07T05:22:09;23.80;99.90
64501;DHT22;50874;24.150;-110.320;2023-05-07T05:24:35;23.80;99.90
64501;DHT22;50874;24.150;-110.320;2023-05-07T05:27:02;23.80;99.90
64501;DHT22;50874;24.150;-110.320;2023-05-07T05:29:28;23.70;99.90
64501;DHT22;50874;24.150;-110.320;2023-05-07T05:31:56;23.80;99.90
64501;DHT22;50874;24.150;-110.320;2023-05-07T05:34:22;23.70;99.90
64501;DHT22;50874;24.150;-110.320;2023-05-07T05:36:49;23.60;99.90
64501;DHT22;50874;24.150;-110.320;2023-05-07T05:39:15;23.50;99.90
64501;DHT22;50874;24.150;-110.320;2023-05-07T05:41:42;23.40;99.90
64501;DHT22;50874;24.150;-110.320;2023-05-07T05:44:08;23.40;99.90
64501;DHT22;50874;24.150;-110.320;2023-05-07T05:46:35;23.30;99.90
64501;DHT22;50874;24.150;-110.320;2023-05-07T05:49:01;23.20;99.90
64501;DHT22;50874;24.150;-110.320;2023-05-07T05:51:28;23.20;99.90
64501;DHT22;50874;24.150;-110.320;2023-05-07T05:53:54;23.20;99.90
64501;DHT22;50874;24.150;-110.320;2023-05-07T05:56:21;23.20;99.90
64501;DHT22;50874;24.150;-110.320;2023-05-07T05:58:47;23.20;99.90
64501;DHT22;50874;24.150;-110.320;2023-05-07T06:01:14;23.10;99.90
64501;DHT22;50874;24.150;-110.320;2023-05-07T06:03:40;23.10;99.90
64501;DHT22;50874;24.150;-110.320;2023-05-07T06:06:06;23.10;99.90
64501;DHT22;50874;24.150;-110.320;2023-05-07T06:08:33;23.10;99.90
64501;DHT22;50874;24.150;-110.320;2023-05-07T06:11:00;23.00;99.90
64501;DHT22;50874;24.150;-110.320;2023-05-07T06:13:27;23.00;99.90
64501;DHT22;50874;24.150;-110.320;2023-05-07T06:15:53;23.00;99.90
64501;DHT22;50874;24.150;-110.320;2023-05-07T06:18:20;22.90;99.90
64501;DHT22;50874;24.150;-110.320;2023-05-07T06:20:46;22.90;99.90
64501;DHT22;50874;24.150;-110.320;2023-05-07T06:23:14;22.90;99.90
64501;DHT22;50874;24.150;-110.320;2023-05-07T06:25:40;22.90;99.90
64501;DHT22;50874;24.150;-110.320;2023-05-07T06:28:07;22.80;99.90
64501;DHT22;50874;24.150;-110.320;2023-05-07T06:30:35;22.70;99.90
64501;DHT22;50874;24.150;-110.320;2023-05-07T06:33:01;22.80;99.90
64501;DHT22;50874;24.150;-110.320;2023-05-07T06:35:28;22.70;99.90
64501;DHT22;50874;24.150;-110.320;2023-05-07T06:37:54;22.60;99.90
64501;DHT22;50874;24.150;-110.320;2023-05-07T06:40:21;22.50;99.90
64501;DHT22;50874;24.150;-110.320;2023-05-07T06:42:47;22.40;99.90
64501;DHT22;50874;24.150;-110.320;2023-05-07T06:45:13;22.40;99.90
64501;DHT22;50874;24.150;-110.320;2023-05-07T06:47:40;22.20;99.90
64501;DHT22;50874;24.150;-110.320;2023-05-07T06:50:07;22.20;99.90
64501;DHT22;50874;24.150;-110.320;2023-05-07T06:52:34;22.30;99.90
64501;DHT22;50874;24.150;-110.320;2023-05-07T06:55:01;22.30;99.90
64501;DHT22;50874;24.150;-110.320;2023-05-07T06:57:27;22.40;99.90
64501;DHT22;50874;24.150;-110.320;2023-05-07T06:59:54;22.50;99.90
64501;DHT22;50874;24.150;-110.320;2023-05-07T07:02:20;22.50;99.90
64501;DHT22;50874;24.150;-110.320;2023-05-07T07:04:47;22.60;99.90
64501;DHT22;50874;24.150;-110.320;2023-05-07T07:07:13;22.60;99.90
64501;DHT22;50874;24.150;-110.320;2023-05-07T07:09:39;22.70;99.90
64501;DHT22;50874;24.150;-110.320;2023-05-07T07:12:06;22.70;99.90
64501;DHT22;50874;24.150;-110.320;2023-05-07T07:14:32;22.70;99.90
64501;DHT22;50874;24.150;-110.320;2023-05-07T07:16:59;22.60;99.90
64501;DHT22;50874;24.150;-110.320;2023-05-07T07:19:26;22.50;99.90
64501;DHT22;50874;24.150;-110.320;2023-05-07T07:21:52;22.40;99.90
64501;DHT22;50874;24.150;-110.320;2023-05-07T07:24:19;22.30;99.90
64501;DHT22;50874;24.150;-110.320;2023-05-07T07:26:47;22.20;99.90
64501;DHT22;50874;24.150;-110.320;2023-05-07T07:29:13;22.20;99.90
64501;DHT22;50874;24.150;-110.320;2023-05-07T07:31:40;22.20;99.90
64501;DHT22;50874;24.150;-110.320;2023-05-07T07:34:06;22.20;99.90
64501;DHT22;50874;24.150;-110.320;2023-05-07T07:36:36;22.10;99.90
64501;DHT22;50874;24.150;-110.320;2023-05-07T07:39:02;22.20;99.90
64501;DHT22;50874;24.150;-110.320;2023-05-07T07:41:28;22.20;99.90
64501;DHT22;50874;24.150;-110.320;2023-05-07T07:43:55;22.10;99.90
64501;DHT22;50874;24.150;-110.320;2023-05-07T07:46:21;22.10;99.90
64501;DHT22;50874;24.150;-110.320;2023-05-07T07:48:48;22.10;99.90
64501;DHT22;50874;24.150;-110.320;2023-05-07T07:51:14;22.00;99.90
64501;DHT22;50874;24.150;-110.320;2023-05-07T07:53:41;22.10;99.90
64501;DHT22;50874;24.150;-110.320;2023-05-07T07:56:08;22.00;99.90
64501;DHT22;50874;24.150;-110.320;2023-05-07T07:58:34;22.00;99.90
64501;DHT22;50874;24.150;-110.320;2023-05-07T08:01:02;22.00;99.90
64501;DHT22;50874;24.150;-110.320;2023-05-07T08:03:29;22.00;99.90
64501;DHT22;50874;24.150;-110.320;2023-05-07T08:05:58;22.00;99.90
64501;DHT22;50874;24.150;-110.320;2023-05-07T08:08:24;22.00;99.90
64501;DHT22;50874;24.150;-110.320;2023-05-07T08:10:51;22.00;99.90
64501;DHT22;50874;24.150;-110.320;2023-05-07T08:13:18;22.00;99.90
64501;DHT22;50874;24.150;-110.320;2023-05-07T08:15:44;22.00;99.90
64501;DHT22;50874;24.150;-110.320;2023-05-07T08:18:11;21.90;99.90
64501;DHT22;50874;24.150;-110.320;2023-05-07T08:20:37;21.90;99.90
64501;DHT22;50874;24.150;-110.320;2023-05-07T08:23:05;21.90;99.90
64501;DHT22;50874;24.150;-110.320;2023-05-07T08:25:35;21.80;99.90
64501;DHT22;50874;24.150;-110.320;2023-05-07T08:28:01;21.80;99.90
64501;DHT22;50874;24.150;-110.320;2023-05-07T08:30:29;21.90;99.90
64501;DHT22;50874;24.150;-110.320;2023-05-07T08:32:55;21.80;99.90
64501;DHT22;50874;24.150;-110.320;2023-05-07T08:35:22;21.80;99.90
64501;DHT22;50874;24.150;-110.320;2023-05-07T08:37:48;21.90;99.90
64501;DHT22;50874;24.150;-110.320;2023-05-07T08:40:15;21.80;99.90
64501;DHT22;50874;24.150;-110.320;2023-05-07T08:42:42;21.80;99.90
64501;DHT22;50874;24.150;-110.320;2023-05-07T08:45:10;21.80;99.90
64501;DHT22;50874;24.150;-110.320;2023-05-07T08:47:44;21.80;99.90
64501;DHT22;50874;24.150;-110.320;2023-05-07T08:50:13;21.80;99.90
64501;DHT22;50874;24.150;-110.320;2023-05-07T08:52:40;21.80;99.90
64501;DHT22;50874;24.150;-110.320;2023-05-07T08:55:07;21.80;99.90
64501;DHT22;50874;24.150;-110.320;2023-05-07T08:57:34;21.80;99.90
64501;DHT22;50874;24.150;-110.320;2023-05-07T09:00:02;21.80;99.90
64501;DHT22;50874;24.150;-110.320;2023-05-07T09:02:29;21.80;99.90
64501;DHT22;50874;24.150;-110.320;2023-05-07T09:04:56;21.80;99.90
64501;DHT22;50874;24.150;-110.320;2023-05-07T09:07:22;21.80;99.90
64501;DHT22;50874;24.150;-110.320;2023-05-07T09:09:49;21.80;99.90
64501;DHT22;50874;24.150;-110.320;2023-05-07T09:12:17;21.90;99.90
64501;DHT22;50874;24.150;-110.320;2023-05-07T09:14:45;22.00;99.90
64501;DHT22;50874;24.150;-110.320;2023-05-07T09:17:12;21.90;99.90
64501;DHT22;50874;24.150;-110.320;2023-05-07T09:19:38;21.90;99.90
64501;DHT22;50874;24.150;-110.320;2023-05-07T09:22:06;21.90;99.90
64501;DHT22;50874;24.150;-110.320;2023-05-07T09:24:35;22.00;99.90
64501;DHT22;50874;24.150;-110.320;2023-05-07T09:27:04;22.00;99.90
64501;DHT22;50874;24.150;-110.320;2023-05-07T09:29:31;21.90;99.90
64501;DHT22;50874;24.150;-110.320;2023-05-07T09:32:07;21.90;99.90
64501;DHT22;50874;24.150;-110.320;2023-05-07T09:34:34;21.90;99.90
64501;DHT22;50874;24.150;-110.320;2023-05-07T09:37:05;21.80;99.90
64501;DHT22;50874;24.150;-110.320;2023-05-07T09:39:46;21.70;99.90
64501;DHT22;50874;24.150;-110.320;2023-05-07T09:42:13;21.80;99.90
64501;DHT22;50874;24.150;-110.320;2023-05-07T09:44:41;21.70;99.90
64501;DHT22;50874;24.150;-110.320;2023-05-07T09:47:10;21.70;99.90
64501;DHT22;50874;24.150;-110.320;2023-05-07T09:49:39;21.80;99.90
64501;DHT22;50874;24.150;-110.320;2023-05-07T09:52:08;21.90;99.90
64501;DHT22;50874;24.150;-110.320;2023-05-07T09:54:36;21.90;99.90
64501;DHT22;50874;24.150;-110.320;2023-05-07T09:57:06;22.00;99.90
64501;DHT22;50874;24.150;-110.320;2023-05-07T09:59:34;21.90;99.90
64501;DHT22;50874;24.150;-110.320;2023-05-07T10:02:03;21.90;99.90
64501;DHT22;50874;24.150;-110.320;2023-05-07T10:04:31;22.00;99.90
64501;DHT22;50874;24.150;-110.320;2023-05-07T10:06:59;21.90;99.90
64501;DHT22;50874;24.150;-110.320;2023-05-07T10:09:26;21.90;99.90
64501;DHT22;50874;24.150;-110.320;2023-05-07T10:11:52;21.90;99.90
64501;DHT22;50874;24.150;-110.320;2023-05-07T10:14:20;21.80;99.90
64501;DHT22;50874;24.150;-110.320;2023-05-07T10:16:48;21.90;99.90
64501;DHT22;50874;24.150;-110.320;2023-05-07T10:19:14;21.80;99.90
64501;DHT22;50874;24.150;-110.320;2023-05-07T10:21:51;21.80;99.90
64501;DHT22;50874;24.150;-110.320;2023-05-07T10:24:25;21.80;99.90
64501;DHT22;50874;24.150;-110.320;2023-05-07T10:26:53;21.70;99.90
64501;DHT22;50874;24.150;-110.320;2023-05-07T10:30:12;21.60;99.90
64501;DHT22;50874;24.150;-110.320;2023-05-07T10:32:49;21.50;99.90
64501;DHT22;50874;24.150;-110.320;2023-05-07T10:35:21;21.30;99.90
64501;DHT22;50874;24.150;-110.320;2023-05-07T10:37:49;21.20;99.90
64501;DHT22;50874;24.150;-110.320;2023-05-07T10:40:15;21.10;99.90
64501;DHT22;50874;24.150;-110.320;2023-05-07T10:42:56;21.00;99.90
64501;DHT22;50874;24.150;-110.320;2023-05-07T10:45:24;20.90;99.90
64501;DHT22;50874;24.150;-110.320;2023-05-07T10:50:36;20.70;99.90
64501;DHT22;50874;24.150;-110.320;2023-05-07T10:58:27;20.60;99.90
64501;DHT22;50874;24.150;-110.320;2023-05-07T11:00:58;20.50;99.90
64501;DHT22;50874;24.150;-110.320;2023-05-07T11:03:26;20.50;99.90
64501;DHT22;50874;24.150;-110.320;2023-05-07T11:08:54;20.40;99.90
64501;DHT22;50874;24.150;-110.320;2023-05-07T11:11:47;20.40;99.90
64501;DHT22;50874;24.150;-110.320;2023-05-07T11:14:42;20.40;99.90
64501;DHT22;50874;24.150;-110.320;2023-05-07T11:17:12;20.40;99.90
64501;DHT22;50874;24.150;-110.320;2023-05-07T11:19:51;20.40;99.90
64501;DHT22;50874;24.150;-110.320;2023-05-07T11:25:02;20.30;99.90
64501;DHT22;50874;24.150;-110.320;2023-05-07T11:27:30;20.30;99.90
64501;DHT22;50874;24.150;-110.320;2023-05-07T11:29:56;20.20;99.90
64501;DHT22;50874;24.150;-110.320;2023-05-07T11:32:27;20.20;99.90
64501;DHT22;50874;24.150;-110.320;2023-05-07T11:34:54;20.20;99.90
64501;DHT22;50874;24.150;-110.320;2023-05-07T11:37:22;20.10;99.90
64501;DHT22;50874;24.150;-110.320;2023-05-07T11:39:49;20.10;99.90
64501;DHT22;50874;24.150;-110.320;2023-05-07T11:42:32;20.10;99.90
64501;DHT22;50874;24.150;-110.320;2023-05-07T11:44:59;20.00;99.90
64501;DHT22;50874;24.150;-110.320;2023-05-07T11:47:29;20.00;99.90
64501;DHT22;50874;24.150;-110.320;2023-05-07T11:49:56;19.90;99.90
64501;DHT22;50874;24.150;-110.320;2023-05-07T11:52:24;19.90;99.90
64501;DHT22;50874;24.150;-110.320;2023-05-07T11:54:51;19.80;99.90
64501;DHT22;50874;24.150;-110.320;2023-05-07T11:57:17;19.70;99.90
64501;DHT22;50874;24.150;-110.320;2023-05-07T11:59:44;19.70;99.90
64501;DHT22;50874;24.150;-110.320;2023-05-07T12:02:11;19.60;99.90
64501;DHT22;50874;24.150;-110.320;2023-05-07T12:04:39;19.50;99.90
64501;DHT22;50874;24.150;-110.320;2023-05-07T12:07:11;19.50;99.90
64501;DHT22;50874;24.150;-110.320;2023-05-07T12:09:37;19.50;99.90
64501;DHT22;50874;24.150;-110.320;2023-05-07T12:12:04;19.50;99.90
64501;DHT22;50874;24.150;-110.320;2023-05-07T12:14:31;19.50;99.90
64501;DHT22;50874;24.150;-110.320;2023-05-07T12:17:01;19.40;99.90
64501;DHT22;50874;24.150;-110.320;2023-05-07T12:19:32;19.40;99.90
64501;DHT22;50874;24.150;-110.320;2023-05-07T12:21:59;19.30;99.90
64501;DHT22;50874;24.150;-110.320;2023-05-07T12:24:26;19.30;99.90
64501;DHT22;50874;24.150;-110.320;2023-05-07T12:26:53;19.30;99.90
64501;DHT22;50874;24.150;-110.320;2023-05-07T12:29:23;19.20;99.90
64501;DHT22;50874;24.150;-110.320;2023-05-07T12:31:50;19.20;99.90
64501;DHT22;50874;24.150;-110.320;2023-05-07T12:34:16;19.10;99.90
64501;DHT22;50874;24.150;-110.320;2023-05-07T12:36:43;19.10;99.90
64501;DHT22;50874;24.150;-110.320;2023-05-07T12:39:09;19.10;99.90
64501;DHT22;50874;24.150;-110.320;2023-05-07T12:41:52;19.10;99.90
64501;DHT22;50874;24.150;-110.320;2023-05-07T12:44:21;19.00;99.90
64501;DHT22;50874;24.150;-110.320;2023-05-07T12:46:48;19.00;99.90
64501;DHT22;50874;24.150;-110.320;2023-05-07T12:49:14;18.90;99.90
64501;DHT22;50874;24.150;-110.320;2023-05-07T12:51:41;18.80;99.90
64501;DHT22;50874;24.150;-110.320;2023-05-07T12:54:07;18.80;99.90
64501;DHT22;50874;24.150;-110.320;2023-05-07T12:56:36;18.80;99.90
64501;DHT22;50874;24.150;-110.320;2023-05-07T12:59:03;18.80;99.90
64501;DHT22;50874;24.150;-110.320;2023-05-07T13:01:31;18.90;99.90
64501;DHT22;50874;24.150;-110.320;2023-05-07T13:04:01;18.90;99.90
64501;DHT22;50874;24.150;-110.320;2023-05-07T13:06:30;18.90;99.90
64501;DHT22;50874;24.150;-110.320;2023-05-07T13:08:57;19.00;99.90
64501;DHT22;50874;24.150;-110.320;2023-05-07T13:11:23;19.10;99.90
64501;DHT22;50874;24.150;-110.320;2023-05-07T13:13:50;19.30;99.90
64501;DHT22;50874;24.150;-110.320;2023-05-07T13:16:17;19.70;99.90
64501;DHT22;50874;24.150;-110.320;2023-05-07T13:18:43;20.20;99.90
64501;DHT22;50874;24.150;-110.320;2023-05-07T13:21:11;20.60;99.90
64501;DHT22;50874;24.150;-110.320;2023-05-07T13:23:39;21.10;99.90
64501;DHT22;50874;24.150;-110.320;2023-05-07T13:26:06;21.60;99.90
64501;DHT22;50874;24.150;-110.320;2023-05-07T13:28:32;22.10;99.90
64501;DHT22;50874;24.150;-110.320;2023-05-07T13:30:59;22.50;99.90
64501;DHT22;50874;24.150;-110.320;2023-05-07T13:33:25;23.00;99.90
64501;DHT22;50874;24.150;-110.320;2023-05-07T13:35:52;23.50;99.90
64501;DHT22;50874;24.150;-110.320;2023-05-07T13:38:18;24.00;99.90
64501;DHT22;50874;24.150;-110.320;2023-05-07T13:40:45;24.40;99.90
64501;DHT22;50874;24.150;-110.320;2023-05-07T13:43:11;24.60;99.90
64501;DHT22;50874;24.150;-110.320;2023-05-07T13:45:38;24.40;99.90
64501;DHT22;50874;24.150;-110.320;2023-05-07T13:48:04;24.00;99.90
64501;DHT22;50874;24.150;-110.320;2023-05-07T13:50:31;23.70;99.90
64501;DHT22;50874;24.150;-110.320;2023-05-07T13:52:57;23.90;99.90
64501;DHT22;50874;24.150;-110.320;2023-05-07T13:55:24;24.30;99.90
64501;DHT22;50874;24.150;-110.320;2023-05-07T13:57:58;24.20;99.90
64501;DHT22;50874;24.150;-110.320;2023-05-07T14:00:26;24.80;99.90
64501;DHT22;50874;24.150;-110.320;2023-05-07T14:02:53;25.60;99.90
64501;DHT22;50874;24.150;-110.320;2023-05-07T14:05:20;25.90;99.90
64501;DHT22;50874;24.150;-110.320;2023-05-07T14:07:52;26.20;99.90
64501;DHT22;50874;24.150;-110.320;2023-05-07T14:10:19;26.50;99.90
64501;DHT22;50874;24.150;-110.320;2023-05-07T14:12:46;26.80;99.90
64501;DHT22;50874;24.150;-110.320;2023-05-07T14:15:13;26.60;99.90
64501;DHT22;50874;24.150;-110.320;2023-05-07T14:17:40;26.40;99.90
64501;DHT22;50874;24.150;-110.320;2023-05-07T14:20:06;26.30;99.90
64501;DHT22;50874;24.150;-110.320;2023-05-07T14:22:33;27.00;99.90
64501;DHT22;50874;24.150;-110.320;2023-05-07T14:24:59;27.80;99.90
64501;DHT22;50874;24.150;-110.320;2023-05-07T14:27:26;27.70;99.90
64501;DHT22;50874;24.150;-110.320;2023-05-07T14:29:52;27.50;99.90
64501;DHT22;50874;24.150;-110.320;2023-05-07T14:32:19;27.50;99.90
64501;DHT22;50874;24.150;-110.320;2023-05-07T14:34:46;27.60;99.90
64501;DHT22;50874;24.150;-110.320;2023-05-07T14:37:12;27.40;99.90
64501;DHT22;50874;24.150;-110.320;2023-05-07T14:39:39;27.00;99.90
64501;DHT22;50874;24.150;-110.320;2023-05-07T14:42:05;26.70;99.90
64501;DHT22;50874;24.150;-110.320;2023-05-07T14:44:35;26.50;99.90
64501;DHT22;50874;24.150;-110.320;2023-05-07T14:47:01;26.80;99.90
64501;DHT22;50874;24.150;-110.320;2023-05-07T14:49:28;26.70;99.90
64501;DHT22;50874;24.150;-110.320;2023-05-07T14:51:57;26.60;99.90
64501;DHT22;50874;24.150;-110.320;2023-05-07T14:54:25;27.00;99.90
64501;DHT22;50874;24.150;-110.320;2023-05-07T14:56:52;27.80;99.90
64501;DHT22;50874;24.150;-110.320;2023-05-07T14:59:19;27.80;99.90
64501;DHT22;50874;24.150;-110.320;2023-05-07T15:01:49;27.90;99.90
64501;DHT22;50874;24.150;-110.320;2023-05-07T15:04:16;27.60;99.90